Time;durP1;ratioP1;P1;durP2;ratioP2;P2;SDS_P1;SDS_P2;PMS_P1;PMS_P2;Temp;Humidity;BMP_temperature;BMP_pressure;BME280_temperature;BME280_humidity;BME280_pressure;Samples;Min_cycle;Max_cycle;Signal;HPM_P1;HPM_P2
2022/04/08 00:01:15;;;;;;;3.33;0.90;;;9.50;99.90;;;;;;5065571;28;20212;-33
2022/04/08 00:03:45;;;;;;;6.60;1.57;;;9.50;99.90;;;;;;5067282;28;20615;-33
2022/04/08 00:06:13;;;;;;;3.73;1.07;;;9.50;99.90;;;;;;5065018;28;20741;-33
2022/04/08 00:08:44;;;;;;;2.70;1.20;;;9.50;99.90;;;;;;5063955;28;20725;-33
2022/04/08 00:11:16;;;;;;;4.27;1.10;;;9.50;99.90;;;;;;5068017;28;20211;-33
2022/04/08 00:13:51;;;;;;;5.33;0.97;;;9.50;99.90;;;;;;5062834;28;20306;-33
2022/04/08 00:16:21;;;;;;;2.53;0.90;;;9.50;99.90;;;;;;5062053;28;20247;-34
2022/04/08 00:18:53;;;;;;;4.17;1.03;;;9.40;99.90;;;;;;5065582;28;20289;-33
2022/04/08 00:21:23;;;;;;;4.03;1.20;;;9.40;99.90;;;;;;5065739;28;20192;-33
2022/04/08 00:23:53;;;;;;;4.50;1.27;;;9.40;99.90;;;;;;5064776;28;20436;-33
2022/04/08 00:26:23;;;;;;;7.00;1.50;;;9.40;99.90;;;;;;5051892;28;20223;-33
2022/04/08 00:28:52;;;;;;;3.30;1.10;;;9.40;99.90;;;;;;5051119;28;20219;-33
2022/04/08 00:31:25;;;;;;;4.00;1.17;;;9.40;99.90;;;;;;5047225;28;20536;-33
2022/04/08 00:33:52;;;;;;;4.20;1.10;;;9.40;99.90;;;;;;5045487;28;20204;-33
2022/04/08 00:36:22;;;;;;;4.40;1.10;;;9.40;99.90;;;;;;5047563;28;20231;-33
2022/04/08 00:38:51;;;;;;;2.67;1.00;;;9.40;99.90;;;;;;5047799;28;20236;-34
2022/04/08 00:41:24;;;;;;;2.80;0.80;;;9.40;99.90;;;;;;5058579;28;20196;-33
2022/04/08 00:43:53;;;;;;;4.43;1.10;;;9.40;99.90;;;;;;5047197;28;20224;-33
2022/04/08 00:46:20;;;;;;;4.23;1.23;;;9.30;99.90;;;;;;5054789;28;20210;-33
2022/04/08 00:48:50;;;;;;;3.33;1.10;;;9.30;99.90;;;;;;5046156;28;20207;-32
2022/04/08 00:51:23;;;;;;;5.17;1.20;;;9.30;99.90;;;;;;5065711;28;20203;-34
2022/04/08 00:53:53;;;;;;;6.53;1.37;;;9.30;99.90;;;;;;5065317;28;20230;-32
2022/04/08 00:56:22;;;;;;;3.60;1.33;;;9.30;99.90;;;;;;5067739;28;20833;-33
2022/04/08 00:58:54;;;;;;;4.57;1.50;;;9.30;99.90;;;;;;5062804;28;20229;-33
2022/04/08 01:01:23;;;;;;;4.03;1.20;;;9.20;99.90;;;;;;5060758;28;20302;-33
2022/04/08 01:03:53;;;;;;;3.23;1.23;;;9.20;99.90;;;;;;5057461;28;20204;-34
2022/04/08 01:06:21;;;;;;;2.70;0.90;;;9.20;99.90;;;;;;5065218;28;20234;-33
2022/04/08 01:08:51;;;;;;;5.17;1.50;;;9.20;99.90;;;;;;5065952;28;20657;-32
2022/04/08 01:11:24;;;;;;;5.67;1.40;;;9.20;99.90;;;;;;5067009;28;20238;-33
2022/04/08 01:13:54;;;;;;;3.77;1.33;;;9.20;99.90;;;;;;5063862;28;20241;-33
2022/04/08 01:16:22;;;;;;;5.27;1.43;;;9.20;99.90;;;;;;5062099;28;20254;-34
2022/04/08 01:18:54;;;;;;;4.13;1.40;;;9.20;99.90;;;;;;5066811;28;20262;-33
2022/04/08 01:21:21;;;;;;;3.30;1.30;;;9.20;99.90;;;;;;5066730;28;20192;-33
2022/04/08 01:23:55;;;;;;;4.50;1.47;;;9.20;99.90;;;;;;5066887;28;20765;-33
2022/04/08 01:26:27;;;;;;;6.00;1.37;;;9.20;99.90;;;;;;5052411;28;20210;-33
2022/04/08 01:28:59;;;;;;;4.67;1.47;;;9.10;99.90;;;;;;5064806;28;20276;-33
2022/04/08 01:31:29;;;;;;;5.07;1.20;;;9.10;99.90;;;;;;5063178;28;20204;-33
2022/04/08 01:33:59;;;;;;;3.27;1.17;;;9.10;99.90;;;;;;5046736;28;20549;-33
2022/04/08 01:36:27;;;;;;;3.57;1.57;;;9.10;99.90;;;;;;5060393;28;20230;-33
2022/04/08 01:38:54;;;;;;;2.50;1.47;;;9.10;99.90;;;;;;5063936;28;20234;-33
2022/04/08 01:41:21;;;;;;;4.73;1.50;;;9.10;99.90;;;;;;5066934;28;20226;-33
2022/04/08 01:43:51;;;;;;;4.80;1.23;;;9.10;99.90;;;;;;5063837;28;20204;-33
2022/04/08 01:46:20;;;;;;;6.47;1.77;;;9.10;99.90;;;;;;5066264;28;20207;-33
2022/04/08 01:48:54;;;;;;;3.60;1.53;;;9.10;99.90;;;;;;5060513;28;20698;-33
2022/04/08 01:51:26;;;;;;;4.07;1.50;;;9.10;99.90;;;;;;5060103;28;20694;-33
2022/04/08 01:53:54;;;;;;;3.77;1.57;;;9.10;99.90;;;;;;5066630;28;20266;-32
2022/04/08 01:56:23;;;;;;;2.13;1.50;;;9.10;99.90;;;;;;5062533;28;20281;-33
2022/04/08 01:58:53;;;;;;;4.77;1.50;;;9.10;99.90;;;;;;5066357;28;20219;-33
2022/04/08 02:01:25;;;;;;;3.90;1.77;;;9.10;99.90;;;;;;5063870;28;20226;-39
2022/04/08 02:03:55;;;;;;;5.30;1.40;;;9.10;99.90;;;;;;5066118;28;20702;-38
2022/04/08 02:06:22;;;;;;;4.53;1.80;;;9.10;99.90;;;;;;5063282;28;20214;-39
2022/04/08 02:08:53;;;;;;;5.03;1.50;;;9.10;99.90;;;;;;5062038;28;20250;-38
2022/04/08 02:11:20;;;;;;;2.80;1.37;;;9.10;99.90;;;;;;5066246;28;20224;-38
2022/04/08 02:13:48;;;;;;;6.30;1.57;;;9.00;99.90;;;;;;5069824;28;20231;-39
2022/04/08 02:16:17;;;;;;;5.37;1.60;;;9.00;99.90;;;;;;5065653;28;20207;-38
2022/04/08 02:18:48;;;;;;;4.67;1.50;;;9.10;99.90;;;;;;5069679;28;20299;-38
2022/04/08 02:21:19;;;;;;;5.53;1.57;;;9.10;99.90;;;;;;5064286;28;20219;-38
2022/04/08 02:23:47;;;;;;;3.07;1.43;;;9.10;99.90;;;;;;5065573;28;20210;-39
2022/04/08 02:26:17;;;;;;;3.23;1.40;;;9.00;99.90;;;;;;5064575;28;20644;-38
2022/04/08 02:28:47;;;;;;;3.53;1.40;;;9.00;99.90;;;;;;5069453;28;20215;-33
2022/04/08 02:31:16;;;;;;;2.70;1.40;;;9.00;99.90;;;;;;5069442;28;20290;-33
2022/04/08 02:33:43;;;;;;;3.70;1.47;;;9.00;99.90;;;;;;5062399;28;20583;-33
2022/04/08 02:36:11;;;;;;;3.83;1.30;;;9.00;99.90;;;;;;5081742;28;20807;-33
2022/04/08 02:38:38;;;;;;;4.10;1.57;;;9.00;99.90;;;;;;5049354;28;20289;-33
2022/04/08 02:41:08;;;;;;;3.77;1.50;;;9.00;99.90;;;;;;5055300;28;20757;-33
2022/04/08 02:43:39;;;;;;;5.20;1.50;;;8.90;99.90;;;;;;5063493;28;20204;-33
2022/04/08 02:46:09;;;;;;;3.90;1.60;;;8.90;99.90;;;;;;5062401;28;20246;-38
2022/04/08 02:48:41;;;;;;;6.80;1.53;;;8.90;99.90;;;;;;5068724;28;20273;-38
2022/04/08 02:51:10;;;;;;;3.93;1.53;;;8.90;99.90;;;;;;5062818;28;20691;-39
2022/04/08 02:53:42;;;;;;;1.83;1.40;;;8.90;99.90;;;;;;5067342;28;20222;-38
2022/04/08 02:56:10;;;;;;;4.47;1.43;;;8.80;99.90;;;;;;5063251;28;20298;-39
2022/04/08 02:58:37;;;;;;;3.63;1.50;;;8.80;99.90;;;;;;5068681;28;20318;-39
2022/04/08 03:01:04;;;;;;;3.80;1.50;;;8.80;99.90;;;;;;5066159;28;20255;-39
2022/04/08 03:03:34;;;;;;;6.10;2.43;;;8.80;99.90;;;;;;5066459;28;20258;-38
2022/04/08 03:06:03;;;;;;;2.47;1.40;;;8.80;99.90;;;;;;5066461;28;20733;-38
2022/04/08 03:08:31;;;;;;;2.17;1.33;;;8.70;99.90;;;;;;5066711;28;20245;-39
2022/04/08 03:11:00;;;;;;;2.07;1.40;;;8.70;99.90;;;;;;5068961;28;20207;-39
2022/04/08 03:13:30;;;;;;;3.73;1.37;;;8.70;99.90;;;;;;5063573;28;20577;-39
2022/04/08 03:15:57;;;;;;;2.60;1.40;;;8.70;99.90;;;;;;5055189;28;20314;-39
2022/04/08 03:18:27;;;;;;;5.67;1.30;;;8.60;99.90;;;;;;5061339;28;20676;-38
2022/04/08 03:20:54;;;;;;;2.43;1.63;;;8.60;99.90;;;;;;5066271;28;20200;-39
2022/04/08 03:23:24;;;;;;;5.03;1.60;;;8.60;99.90;;;;;;5068577;28;20206;-39
2022/04/08 03:25:53;;;;;;;4.97;1.73;;;8.60;99.90;;;;;;5056438;28;20422;-39
2022/04/08 03:28:22;;;;;;;5.87;2.10;;;8.60;99.90;;;;;;5056559;28;20207;-38
2022/04/08 03:30:53;;;;;;;5.43;2.10;;;8.60;99.90;;;;;;5067868;28;20207;-38
2022/04/08 03:33:23;;;;;;;3.67;1.80;;;8.60;99.90;;;;;;5052764;28;20569;-38
2022/04/08 03:35:50;;;;;;;3.63;2.00;;;8.60;99.90;;;;;;5052969;28;20294;-38
2022/04/08 03:38:22;;;;;;;2.97;2.10;;;8.60;99.90;;;;;;5066024;28;20212;-38
2022/04/08 03:40:49;;;;;;;4.40;2.20;;;8.60;99.90;;;;;;5069403;28;20269;-39
2022/04/08 03:43:18;;;;;;;5.10;2.40;;;8.60;99.90;;;;;;5065491;28;20269;-39
2022/04/08 03:45:47;;;;;;;4.83;2.23;;;8.60;99.90;;;;;;5067808;28;21032;-38
2022/04/08 03:48:17;;;;;;;7.80;2.60;;;8.60;99.90;;;;;;5065732;28;20678;-39
2022/04/08 03:50:49;;;;;;;4.33;2.43;;;8.60;99.90;;;;;;5067399;28;20497;-33
2022/04/08 03:53:16;;;;;;;3.40;1.93;;;8.60;99.90;;;;;;5060356;28;20239;-33
2022/04/08 03:55:43;;;;;;;5.20;2.47;;;8.50;99.90;;;;;;5085989;28;20233;-33
2022/04/08 03:58:11;;;;;;;4.27;2.60;;;8.50;99.90;;;;;;5075032;28;20203;-39
2022/04/08 04:00:41;;;;;;;3.67;2.57;;;8.50;99.90;;;;;;5067180;28;20215;-38
2022/04/08 04:03:10;;;;;;;4.90;2.70;;;8.50;99.90;;;;;;5064765;28;20218;-39
2022/04/08 04:05:44;;;;;;;4.43;2.63;;;8.50;99.90;;;;;;5065142;28;20731;-38
2022/04/08 04:08:18;;;;;;;7.47;3.00;;;8.50;99.90;;;;;;5063932;28;20199;-38
2022/04/08 04:10:51;;;;;;;9.37;2.77;;;8.50;99.90;;;;;;5067827;28;20211;-39
2022/04/08 04:13:23;;;;;;;4.67;2.80;;;8.50;99.90;;;;;;5068075;28;20235;-39
2022/04/08 04:15:53;;;;;;;8.90;3.10;;;8.50;99.90;;;;;;5065902;28;20235;-39
2022/04/08 04:18:20;;;;;;;5.53;3.33;;;8.50;99.90;;;;;;5067633;28;20600;-39
2022/04/08 04:20:47;;;;;;;7.97;3.30;;;8.40;99.90;;;;;;5064803;28;20211;-39
2022/04/08 04:23:15;;;;;;;9.23;3.37;;;8.40;99.90;;;;;;5059154;28;20215;-39
2022/04/08 04:25:42;;;;;;;5.87;3.17;;;8.40;99.90;;;;;;5057066;28;20757;-39
2022/04/08 04:28:11;;;;;;;6.90;2.90;;;8.40;99.90;;;;;;5066701;28;20573;-39
2022/04/08 04:30:44;;;;;;;7.10;3.20;;;8.40;99.90;;;;;;5066876;28;20753;-39
2022/04/08 04:33:11;;;;;;;6.33;3.63;;;8.40;99.90;;;;;;5064276;28;20698;-39
2022/04/08 04:35:45;;;;;;;6.00;3.00;;;8.40;99.90;;;;;;5053836;28;20678;-39
2022/04/08 04:38:12;;;;;;;7.00;3.23;;;8.40;99.90;;;;;;5053793;28;20564;-39
2022/04/08 04:40:39;;;;;;;5.90;3.17;;;8.40;99.90;;;;;;5066782;28;20233;-39
2022/04/08 04:43:06;;;;;;;8.43;3.47;;;8.40;99.90;;;;;;5066134;28;20199;-39
2022/04/08 04:45:38;;;;;;;7.37;3.03;;;8.40;99.90;;;;;;5063540;28;20204;-39
2022/04/08 04:48:10;;;;;;;4.20;3.17;;;8.30;99.90;;;;;;5067395;28;20238;-39
2022/04/08 04:50:40;;;;;;;6.20;3.00;;;8.30;99.90;;;;;;5067029;28;20588;-39
2022/04/08 04:53:07;;;;;;;5.17;2.87;;;8.30;99.90;;;;;;5064186;28;20203;-39
2022/04/08 04:55:37;;;;;;;5.73;2.87;;;8.30;99.90;;;;;;5085602;28;20245;-39
2022/04/08 04:58:10;;;;;;;6.50;2.90;;;8.30;99.90;;;;;;5065175;28;20297;-39
2022/04/08 05:00:37;;;;;;;6.07;3.03;;;8.20;99.90;;;;;;5062348;28;20643;-39
2022/04/08 05:03:11;;;;;;;4.57;2.80;;;8.20;99.90;;;;;;5066925;28;20246;-39
2022/04/08 05:05:39;;;;;;;5.53;2.97;;;8.20;99.90;;;;;;5060181;28;20218;-39
2022/04/08 05:08:09;;;;;;;3.90;2.90;;;8.20;99.90;;;;;;5065336;28;20211;-39
2022/04/08 05:10:39;;;;;;;6.23;2.90;;;8.20;99.90;;;;;;5066805;28;20199;-39
2022/04/08 05:13:09;;;;;;;7.93;2.70;;;8.20;99.90;;;;;;5062995;28;20210;-39
2022/04/08 05:15:42;;;;;;;4.77;2.43;;;8.20;99.90;;;;;;5057826;28;20273;-39
2022/04/08 05:18:10;;;;;;;5.10;2.63;;;8.20;99.90;;;;;;5065055;28;20517;-39
2022/04/08 05:20:37;;;;;;;4.87;2.50;;;8.20;99.90;;;;;;5060450;28;20228;-39
2022/04/08 05:23:06;;;;;;;5.53;2.97;;;8.20;99.90;;;;;;5062720;28;20670;-40
2022/04/08 05:25:36;;;;;;;8.43;3.10;;;8.20;99.90;;;;;;5061557;28;20231;-40
2022/04/08 05:28:11;;;;;;;8.13;2.83;;;8.20;99.90;;;;;;5060878;28;20253;-35
2022/04/08 05:30:42;;;;;;;9.23;3.00;;;8.20;99.90;;;;;;5065525;28;20733;-35
2022/04/08 05:33:17;;;;;;;5.97;2.60;;;8.20;99.90;;;;;;5066577;28;20306;-35
2022/04/08 05:35:47;;;;;;;8.40;2.50;;;8.20;99.90;;;;;;5062631;28;20299;-34
2022/04/08 05:38:19;;;;;;;5.40;2.57;;;8.20;99.90;;;;;;5066620;28;20751;-35
2022/04/08 05:40:46;;;;;;;8.80;2.73;;;8.20;99.90;;;;;;5060497;28;20215;-34
2022/04/08 05:43:13;;;;;;;5.33;2.20;;;8.20;99.90;;;;;;5064367;28;20225;-34
2022/04/08 05:45:42;;;;;;;5.43;2.63;;;8.20;99.90;;;;;;5049589;28;20224;-34
2022/04/08 05:48:10;;;;;;;16.40;4.00;;;8.20;99.90;;;;;;5053383;28;20219;-33
2022/04/08 05:50:37;;;;;;;14.63;3.43;;;8.20;99.90;;;;;;5070364;28;20298;-34
2022/04/08 05:53:07;;;;;;;7.50;3.10;;;8.30;99.90;;;;;;5062682;28;20215;-34
2022/04/08 05:55:58;;;;;;;8.13;2.40;;;8.30;99.90;;;;;;5050765;28;20207;-34
2022/04/08 05:58:25;;;;;;;8.37;2.53;;;8.30;99.90;;;;;;5050168;28;20208;-34
2022/04/08 06:00:53;;;;;;;6.83;2.60;;;8.30;99.90;;;;;;5054328;28;20698;-34
2022/04/08 06:03:24;;;;;;;9.27;2.27;;;8.30;99.90;;;;;;5065289;28;20200;-34
2022/04/08 06:05:55;;;;;;;4.87;2.40;;;8.30;99.90;;;;;;5056848;28;20218;-32
2022/04/08 06:08:22;;;;;;;4.03;2.10;;;8.40;99.90;;;;;;5067425;28;20299;-32
2022/04/08 06:10:52;;;;;;;10.87;2.67;;;8.40;99.90;;;;;;5064538;28;20299;-32
2022/04/08 06:13:26;;;;;;;7.93;2.87;;;8.50;99.90;;;;;;5062964;28;20191;-32
2022/04/08 06:15:55;;;;;;;19.10;4.33;;;8.50;99.90;;;;;;5066163;28;20218;-32
2022/04/08 06:18:24;;;;;;;16.60;4.07;;;8.50;99.90;;;;;;5062372;28;20212;-33
2022/04/08 06:21:00;;;;;;;7.90;2.63;;;8.50;99.90;;;;;;5052609;28;20795;-33
2022/04/08 06:23:29;;;;;;;5.63;2.50;;;8.60;99.90;;;;;;5059545;28;20199;-33
2022/04/08 06:25:59;;;;;;;6.30;2.20;;;8.60;99.90;;;;;;5067118;28;20678;-33
2022/04/08 06:28:28;;;;;;;5.47;2.63;;;8.60;99.90;;;;;;5058696;28;20258;-33
2022/04/08 06:31:00;;;;;;;3.73;1.90;;;8.70;99.90;;;;;;5065890;28;20745;-33
2022/04/08 06:33:30;;;;;;;6.90;2.60;;;8.70;99.90;;;;;;5063550;28;20277;-33
2022/04/08 06:35:59;;;;;;;5.30;2.23;;;8.70;99.90;;;;;;5049077;28;20222;-33
2022/04/08 06:38:29;;;;;;;6.10;2.30;;;8.80;99.90;;;;;;5054638;28;20672;-33
2022/04/08 06:41:03;;;;;;;4.80;2.10;;;8.80;99.90;;;;;;5047947;28;20235;-33
2022/04/08 06:43:34;;;;;;;5.03;2.23;;;8.80;99.90;;;;;;5055077;28;20626;-33
2022/04/08 06:46:01;;;;;;;7.53;2.73;;;8.80;99.90;;;;;;5056491;28;20226;-33
2022/04/08 06:48:31;;;;;;;4.90;2.20;;;8.80;99.90;;;;;;5068818;28;20693;-32
2022/04/08 06:51:04;;;;;;;6.27;2.10;;;8.90;99.90;;;;;;5069550;28;20238;-33
2022/04/08 06:53:38;;;;;;;7.80;2.17;;;8.90;99.90;;;;;;5057673;28;20278;-33
2022/04/08 06:56:05;;;;;;;8.37;2.60;;;8.90;99.90;;;;;;5067669;28;20211;-32
2022/04/08 06:58:38;;;;;;;5.87;2.47;;;8.90;99.90;;;;;;5065055;28;20658;-33
2022/04/08 07:01:12;;;;;;;4.23;2.10;;;8.90;99.90;;;;;;5059749;28;20250;-32
2022/04/08 07:03:46;;;;;;;4.40;2.00;;;9.00;99.90;;;;;;5064937;28;20234;-33
2022/04/08 07:06:13;;;;;;;7.17;2.30;;;9.00;99.90;;;;;;5065170;28;20241;-32
2022/04/08 07:08:48;;;;;;;6.77;2.13;;;9.00;99.90;;;;;;5066761;28;20241;-33
2022/04/08 07:11:15;;;;;;;6.30;2.20;;;9.00;99.90;;;;;;5062276;28;20227;-32
2022/04/08 07:13:45;;;;;;;6.83;2.00;;;9.00;99.90;;;;;;5056844;28;20211;-32
2022/04/08 07:16:12;;;;;;;5.27;2.23;;;9.10;99.90;;;;;;5064544;28;20286;-32
2022/04/08 07:18:44;;;;;;;5.63;2.00;;;9.10;99.90;;;;;;5067071;28;20211;-32
2022/04/08 07:21:11;;;;;;;8.90;2.30;;;9.10;99.90;;;;;;5056054;28;20227;-32
2022/04/08 07:23:41;;;;;;;4.83;1.93;;;9.20;99.90;;;;;;5065941;28;20735;-32
2022/04/08 07:26:08;;;;;;;4.67;1.77;;;9.20;99.90;;;;;;5064293;28;20556;-32
2022/04/08 07:28:35;;;;;;;4.03;1.60;;;9.20;99.90;;;;;;5062846;28;20751;-32
2022/04/08 07:31:08;;;;;;;4.33;1.80;;;9.30;99.90;;;;;;5062294;28;20612;-32
2022/04/08 07:33:35;;;;;;;6.33;2.20;;;9.30;99.90;;;;;;5064265;28;20315;-32
2022/04/08 07:36:03;;;;;;;3.90;1.90;;;9.30;99.90;;;;;;5059463;28;20200;-32
2022/04/08 07:38:31;;;;;;;4.03;1.80;;;9.30;99.90;;;;;;5062558;28;20208;-32
2022/04/08 07:40:58;;;;;;;6.53;1.67;;;9.40;99.90;;;;;;5066349;28;20227;-32
2022/04/08 07:43:26;;;;;;;5.90;2.20;;;9.40;99.90;;;;;;5068254;28;20211;-32
2022/04/08 07:45:55;;;;;;;4.63;1.70;;;9.50;99.90;;;;;;5065127;28;20214;-33
2022/04/08 07:48:27;;;;;;;6.67;2.07;;;9.50;99.90;;;;;;5059656;28;20204;-32
2022/04/08 07:50:54;;;;;;;8.43;1.90;;;9.50;99.90;;;;;;5064036;28;20204;-32
2022/04/08 07:53:22;;;;;;;7.23;1.93;;;9.50;99.90;;;;;;5048447;28;20266;-32
2022/04/08 07:55:49;;;;;;;7.27;1.80;;;9.60;99.90;;;;;;5065009;28;20209;-32
2022/04/08 07:58:19;;;;;;;5.47;1.93;;;9.60;99.90;;;;;;5064888;28;20200;-32
2022/04/08 08:00:48;;;;;;;5.00;1.50;;;9.60;99.90;;;;;;5065365;28;20217;-32
2022/04/08 08:03:20;;;;;;;6.70;1.80;;;9.60;99.90;;;;;;5067943;28;20227;-32
2022/04/08 08:05:53;;;;;;;7.63;2.13;;;9.70;99.90;;;;;;5064889;28;20203;-33
2022/04/08 08:08:20;;;;;;;7.80;2.20;;;9.70;99.90;;;;;;5058473;28;20204;-33
2022/04/08 08:10:50;;;;;;;5.37;1.60;;;9.70;99.90;;;;;;5062162;28;20239;-32
2022/04/08 08:13:19;;;;;;;5.43;1.83;;;9.80;99.90;;;;;;5075025;28;20203;-32
2022/04/08 08:15:46;;;;;;;3.13;1.67;;;9.80;99.90;;;;;;5066032;28;20205;-33
2022/04/08 08:18:14;;;;;;;6.77;1.77;;;9.80;99.90;;;;;;5059113;28;20666;-32
2022/04/08 08:20:44;;;;;;;4.90;1.60;;;9.80;99.90;;;;;;5056109;28;20301;-32
2022/04/08 08:23:15;;;;;;;8.80;2.63;;;9.80;99.90;;;;;;5047286;28;20212;-32
2022/04/08 08:25:44;;;;;;;6.77;1.90;;;9.90;99.90;;;;;;5056756;28;20197;-33
2022/04/08 08:28:23;;;;;;;6.73;1.50;;;9.90;99.90;;;;;;5053369;28;20836;-32
2022/04/08 08:30:52;;;;;;;4.93;1.87;;;9.90;99.90;;;;;;5057292;28;20204;-38
2022/04/08 08:33:20;;;;;;;3.77;1.60;;;10.00;99.90;;;;;;5065140;28;20417;-38
2022/04/08 08:35:54;;;;;;;4.60;1.60;;;10.00;99.90;;;;;;5061662;28;20575;-39
2022/04/08 08:38:21;;;;;;;4.33;1.40;;;10.00;99.90;;;;;;5065627;28;20322;-39
2022/04/08 08:40:52;;;;;;;5.73;2.00;;;10.00;99.90;;;;;;5067261;28;20334;-39
2022/04/08 08:43:20;;;;;;;4.47;1.93;;;10.10;99.90;;;;;;5064914;28;20615;-38
2022/04/08 08:45:49;;;;;;;4.23;1.90;;;10.10;99.90;;;;;;5059366;28;20634;-39
2022/04/08 08:48:25;;;;;;;6.17;1.90;;;10.10;99.90;;;;;;5077978;28;20195;-39
2022/04/08 08:50:56;;;;;;;3.10;1.53;;;10.20;99.90;;;;;;5064906;28;20203;-39
2022/04/08 08:53:27;;;;;;;9.33;2.00;;;10.30;99.90;;;;;;5056461;28;20207;-39
2022/04/08 08:55:54;;;;;;;7.10;2.10;;;10.20;99.90;;;;;;5055729;28;20768;-38
2022/04/08 08:58:23;;;;;;;4.90;1.77;;;10.30;99.90;;;;;;5065978;28;20203;-39
2022/04/08 09:00:52;;;;;;;4.10;1.50;;;10.30;99.90;;;;;;5046075;28;20228;-39
2022/04/08 09:03:28;;;;;;;5.13;1.70;;;10.30;99.90;;;;;;5047879;28;20208;-39
2022/04/08 09:06:09;;;;;;;5.23;1.70;;;10.30;99.90;;;;;;5045619;28;20211;-39
2022/04/08 09:08:42;;;;;;;7.67;2.07;;;10.40;99.90;;;;;;5066262;28;20253;-38
2022/04/08 09:11:13;;;;;;;5.27;1.70;;;10.40;99.90;;;;;;5065525;28;20344;-38
2022/04/08 09:13:49;;;;;;;6.63;1.67;;;10.40;99.90;;;;;;5047684;28;20197;-39
2022/04/08 09:16:29;;;;;;;5.43;1.50;;;10.40;99.90;;;;;;5054652;28;20219;-39
2022/04/08 09:18:57;;;;;;;5.87;1.40;;;10.50;99.90;;;;;;5065198;28;20229;-38
2022/04/08 09:21:25;;;;;;;7.07;2.27;;;10.50;99.90;;;;;;5053145;28;20235;-39
2022/04/08 09:23:53;;;;;;;3.50;1.63;;;10.50;99.90;;;;;;5048042;28;20200;-38
2022/04/08 09:26:23;;;;;;;7.47;1.70;;;10.50;99.90;;;;;;5058118;28;20212;-39
2022/04/08 09:28:56;;;;;;;8.10;1.70;;;10.50;99.90;;;;;;5057798;28;20252;-39
2022/04/08 09:31:26;;;;;;;5.47;2.33;;;10.50;99.90;;;;;;5048426;28;20289;-39
2022/04/08 09:33:53;;;;;;;7.70;1.83;;;10.50;99.90;;;;;;5059330;28;20222;-39
2022/04/08 09:36:30;;;;;;;5.67;1.93;;;10.50;99.90;;;;;;5051525;28;20212;-39
2022/04/08 09:38:58;;;;;;;7.97;2.10;;;10.50;99.90;;;;;;5066249;28;20199;-39
2022/04/08 09:41:41;;;;;;;8.03;1.73;;;10.50;99.90;;;;;;5066193;28;20224;-38
2022/04/08 09:44:13;;;;;;;6.80;1.50;;;10.60;99.90;;;;;;5062479;28;20687;-39
2022/04/08 09:46:45;;;;;;;6.23;1.67;;;10.50;99.90;;;;;;5056620;28;20203;-39
2022/04/08 09:49:17;;;;;;;3.77;1.80;;;10.50;99.90;;;;;;5044481;28;20200;-39
2022/04/08 09:51:54;;;;;;;8.07;2.17;;;10.60;99.90;;;;;;5064972;28;20531;-39
2022/04/08 09:54:22;;;;;;;6.37;2.00;;;10.60;99.90;;;;;;5063568;28;20628;-39
2022/04/08 09:56:50;;;;;;;6.00;2.10;;;10.60;99.90;;;;;;5047946;28;20303;-39
2022/04/08 09:59:22;;;;;;;6.67;2.20;;;10.60;99.90;;;;;;5064228;28;20292;-39
2022/04/08 10:02:12;;;;;;;5.60;1.80;;;10.60;99.90;;;;;;5055401;28;20232;-39
2022/04/08 10:04:47;;;;;;;6.53;2.23;;;10.60;99.90;;;;;;5059264;28;20634;-39
2022/04/08 10:07:17;;;;;;;7.77;2.20;;;10.60;99.90;;;;;;5053655;28;20693;-39
2022/04/08 10:09:58;;;;;;;7.57;2.00;;;10.60;99.90;;;;;;5065038;28;20219;-39
2022/04/08 10:12:45;;;;;;;6.97;2.40;;;10.60;99.90;;;;;;5064831;28;20614;-39
2022/04/08 10:15:29;;;;;;;8.23;2.33;;;10.60;99.90;;;;;;5063852;28;20223;-39
2022/04/08 10:18:05;;;;;;;7.00;2.23;;;10.70;99.90;;;;;;5050186;28;20661;-39
2022/04/08 10:20:37;;;;;;;5.07;1.93;;;10.70;99.90;;;;;;5049117;28;20543;-39
2022/04/08 10:23:09;;;;;;;3.87;1.60;;;10.70;99.90;;;;;;5055970;28;20204;-38
2022/04/08 10:25:41;;;;;;;3.00;1.53;;;10.80;99.90;;;;;;5063386;28;20200;-39
2022/04/08 10:28:14;;;;;;;5.97;1.93;;;10.80;99.90;;;;;;5065680;28;20199;-39
2022/04/08 10:30:48;;;;;;;5.57;2.23;;;10.80;99.90;;;;;;5065551;28;20199;-39
2022/04/08 10:33:31;;;;;;;4.87;2.00;;;10.80;99.90;;;;;;5056801;28;20223;-39
2022/04/08 10:36:07;;;;;;;5.43;2.00;;;10.90;99.90;;;;;;5068577;28;20212;-38
2022/04/08 10:38:40;;;;;;;5.87;2.13;;;10.90;99.90;;;;;;5051329;28;20795;-39
2022/04/08 10:41:11;;;;;;;5.60;1.87;;;10.90;99.90;;;;;;5057378;28;20227;-39
2022/04/08 10:43:48;;;;;;;4.27;1.60;;;10.90;99.90;;;;;;5069641;28;20301;-39
2022/04/08 10:46:33;;;;;;;3.57;1.70;;;10.90;99.90;;;;;;5068441;28;20303;-39
2022/04/08 10:49:08;;;;;;;5.13;1.73;;;11.00;99.90;;;;;;5066376;28;20206;-39
2022/04/08 10:51:47;;;;;;;4.70;1.83;;;11.00;99.90;;;;;;5060181;28;20225;-39
2022/04/08 10:54:17;;;;;;;5.57;1.80;;;10.90;99.90;;;;;;5061378;28;20234;-39
2022/04/08 10:56:58;;;;;;;5.10;1.67;;;11.00;99.90;;;;;;5063203;28;20287;-39
2022/04/08 10:59:31;;;;;;;7.00;2.30;;;11.00;99.90;;;;;;5066175;28;20214;-39
2022/04/08 11:02:05;;;;;;;5.63;1.77;;;11.00;99.90;;;;;;5057494;28;20231;-38
2022/04/08 11:04:35;;;;;;;5.17;1.80;;;11.00;99.90;;;;;;5055176;28;20204;-39
2022/04/08 11:07:07;;;;;;;6.27;2.20;;;11.00;99.90;;;;;;5061809;28;20215;-39
2022/04/08 11:09:36;;;;;;;5.50;1.60;;;11.00;99.90;;;;;;5048508;28;20192;-39
2022/04/08 11:12:06;;;;;;;5.60;1.63;;;11.00;99.90;;;;;;5061703;28;20215;-38
2022/04/08 11:14:38;;;;;;;3.57;1.70;;;11.00;99.90;;;;;;5061122;28;20214;-39
2022/04/08 11:17:05;;;;;;;6.17;2.00;;;11.00;99.90;;;;;;5065927;28;20216;-39
2022/04/08 11:19:35;;;;;;;5.50;2.40;;;11.00;99.90;;;;;;5066074;28;20191;-39
2022/04/08 11:22:10;;;;;;;6.90;2.00;;;11.10;99.90;;;;;;5059597;28;20231;-39
2022/04/08 11:24:39;;;;;;;5.67;2.17;;;11.10;99.90;;;;;;5048696;28;20204;-39
2022/04/08 11:27:12;;;;;;;5.03;1.50;;;11.20;99.90;;;;;;5064079;28;20204;-39
2022/04/08 11:29:44;;;;;;;4.37;1.60;;;11.20;99.90;;;;;;5049605;28;20207;-39
2022/04/08 11:32:15;;;;;;;5.50;1.20;;;11.30;99.90;;;;;;5063455;28;20269;-39
2022/04/08 11:34:46;;;;;;;1.70;1.10;;;11.20;99.90;;;;;;5068139;28;20776;-33
2022/04/08 11:37:14;;;;;;;3.57;1.30;;;11.20;99.90;;;;;;5067938;28;20235;-33
2022/04/08 11:39:57;;;;;;;6.93;1.60;;;11.20;99.90;;;;;;5067518;28;20215;-33
2022/04/08 11:42:28;;;;;;;3.47;1.40;;;11.20;99.90;;;;;;5052655;28;20781;-33
2022/04/08 11:45:00;;;;;;;5.23;1.27;;;11.20;99.90;;;;;;5048388;28;20212;-34
2022/04/08 11:47:32;;;;;;;4.57;1.60;;;11.20;99.90;;;;;;5064553;28;20540;-33
2022/04/08 11:50:07;;;;;;;6.20;1.63;;;11.20;99.90;;;;;;5067519;28;20602;-33
2022/04/08 11:52:38;;;;;;;5.50;1.70;;;11.20;99.90;;;;;;5052179;28;20303;-33
2022/04/08 11:55:11;;;;;;;4.93;1.67;;;11.20;99.90;;;;;;5047919;28;20859;-34
2022/04/08 11:57:44;;;;;;;5.23;1.43;;;11.20;99.90;;;;;;5047340;28;20215;-33
2022/04/08 12:00:14;;;;;;;3.33;1.20;;;11.20;99.90;;;;;;5066155;28;20243;-33
2022/04/08 12:02:47;;;;;;;4.10;1.30;;;11.10;99.90;;;;;;5055492;28;20678;-33
2022/04/08 12:05:27;;;;;;;3.47;1.53;;;11.10;99.90;;;;;;5058319;28;20208;-33
2022/04/08 12:08:00;;;;;;;4.63;1.77;;;11.10;99.90;;;;;;5058118;28;20209;-33
2022/04/08 12:10:28;;;;;;;7.60;1.77;;;11.10;99.90;;;;;;5067388;28;20211;-39
2022/04/08 12:12:58;;;;;;;3.10;1.17;;;11.10;99.90;;;;;;5066516;28;20584;-39
2022/04/08 12:15:28;;;;;;;2.67;1.30;;;11.10;99.90;;;;;;5067467;28;20287;-39
2022/04/08 12:18:06;;;;;;;4.13;1.40;;;11.20;99.90;;;;;;5067293;28;20264;-39
2022/04/08 12:20:38;;;;;;;3.13;0.83;;;11.20;99.90;;;;;;5072526;28;20227;-39
2022/04/08 12:23:09;;;;;;;2.77;1.10;;;11.20;99.90;;;;;;5067139;28;20208;-39
2022/04/08 12:25:41;;;;;;;5.37;0.90;;;11.20;99.90;;;;;;5058056;28;20192;-39
2022/04/08 12:28:14;;;;;;;4.80;1.03;;;11.30;99.90;;;;;;5051886;28;20196;-39
2022/04/08 12:30:43;;;;;;;5.80;0.80;;;11.30;99.90;;;;;;5065929;28;20196;-32
2022/04/08 12:33:18;;;;;;;3.97;0.80;;;11.30;99.90;;;;;;5067249;28;20213;-33
2022/04/08 12:35:48;;;;;;;4.97;1.13;;;11.30;99.90;;;;;;5053367;28;20299;-33
2022/04/08 12:38:19;;;;;;;3.97;1.23;;;11.40;99.90;;;;;;5067343;28;20243;-33
2022/04/08 12:40:50;;;;;;;2.40;1.20;;;11.40;99.90;;;;;;5059317;28;20223;-38
2022/04/08 12:43:25;;;;;;;5.00;1.20;;;11.40;99.90;;;;;;5064498;28;20555;-39
2022/04/08 12:45:55;;;;;;;2.07;1.00;;;11.40;99.90;;;;;;5055631;28;20199;-40
2022/04/08 12:48:22;;;;;;;4.33;1.30;;;11.40;99.90;;;;;;5049403;28;20196;-40
2022/04/08 12:50:54;;;;;;;5.00;1.37;;;11.40;99.90;;;;;;5061771;28;20987;-40
2022/04/08 12:53:23;;;;;;;7.60;2.33;;;11.40;99.90;;;;;;5047867;28;20224;-40
2022/04/08 12:55:51;;;;;;;8.87;1.40;;;11.40;99.90;;;;;;5063508;28;20850;-40
2022/04/08 12:58:21;;;;;;;4.23;1.57;;;11.40;99.90;;;;;;5059715;28;20208;-40
2022/04/08 13:00:52;;;;;;;7.17;1.50;;;11.40;99.90;;;;;;5059998;28;20196;-40
2022/04/08 13:03:23;;;;;;;4.33;1.30;;;11.30;99.90;;;;;;5066185;28;20556;-40
2022/04/08 13:05:55;;;;;;;3.57;1.07;;;11.30;99.90;;;;;;5064526;28;20199;-40
2022/04/08 13:08:25;;;;;;;4.67;1.20;;;11.40;99.90;;;;;;5066920;28;20253;-41
2022/04/08 13:10:52;;;;;;;6.23;1.30;;;11.40;99.90;;;;;;5065476;28;20218;-40